sensor_id;sensor_type;location;lat;lon;timestamp;pressure;altitude;pressure_sealevel;temperature;humidity
8049;BME280;20935;42.660;23.342;2023-04-25T00:02:15;94023.09;;;11.94;100.00
8049;BME280;20935;42.660;23.342;2023-04-25T00:05:03;94021.56;;;11.76;100.00
8049;BME280;20935;42.660;23.342;2023-04-25T00:07:48;94006.22;;;11.93;100.00
8049;BME280;20935;42.660;23.342;2023-04-25T00:10:34;94000.28;;;11.86;100.00
8049;BME280;20935;42.660;23.342;2023-04-25T00:13:20;93990.91;;;11.58;100.00
8049;BME280;20935;42.660;23.342;2023-04-25T00:16:06;93984.63;;;11.64;100.00
8049;BME280;20935;42.660;23.342;2023-04-25T00:18:51;93983.13;;;11.63;100.00
8049;BME280;20935;42.660;23.342;2023-04-25T00:21:39;93966.56;;;11.85;100.00
8049;BME280;20935;42.660;23.342;2023-04-25T00:24:25;93963.53;;;11.83;100.00
8049;BME280;20935;42.660;23.342;2023-04-25T00:27:10;93962.00;;;11.65;100.00
8049;BME280;20935;42.660;23.342;2023-04-25T00:29:56;93951.94;;;11.69;100.00
8049;BME280;20935;42.660;23.342;2023-04-25T00:32:41;93960.97;;;11.59;100.00
8049;BME280;20935;42.660;23.342;2023-04-25T00:35:27;93959.50;;;11.58;100.00
8049;BME280;20935;42.660;23.342;2023-04-25T00:38:14;93962.09;;;11.62;100.00
8049;BME280;20935;42.660;23.342;2023-04-25T00:40:59;93959.31;;;11.49;100.00
8049;BME280;20935;42.660;23.342;2023-04-25T00:43:46;93955.19;;;11.45;100.00
8049;BME280;20935;42.660;23.342;2023-04-25T00:46:32;93946.22;;;11.35;100.00
8049;BME280;20935;42.660;23.342;2023-04-25T00:49:18;93948.22;;;11.31;100.00
8049;BME280;20935;42.660;23.342;2023-04-25T00:52:04;93945.31;;;11.42;100.00
8049;BME280;20935;42.660;23.342;2023-04-25T00:54:51;93949.41;;;11.30;100.00
8049;BME280;20935;42.660;23.342;2023-04-25T00:57:36;93939.94;;;11.25;100.00
8049;BME280;20935;42.660;23.342;2023-04-25T01:00:22;93958.81;;;11.38;100.00
8049;BME280;20935;42.660;23.342;2023-04-25T01:03:07;93957.13;;;11.44;100.00
8049;BME280;20935;42.660;23.342;2023-04-25T01:05:54;93956.25;;;11.31;100.00
8049;BME280;20935;42.660;23.342;2023-04-25T01:08:40;93951.19;;;11.53;100.00
8049;BME280;20935;42.660;23.342;2023-04-25T01:11:27;93939.38;;;11.50;100.00
8049;BME280;20935;42.660;23.342;2023-04-25T01:14:12;93930.56;;;11.50;100.00
8049;BME280;20935;42.660;23.342;2023-04-25T01:16:58;93907.59;;;11.16;100.00
8049;BME280;20935;42.660;23.342;2023-04-25T01:19:43;93916.91;;;11.44;100.00
8049;BME280;20935;42.660;23.342;2023-04-25T01:22:31;93917.47;;;11.36;100.00
8049;BME280;20935;42.660;23.342;2023-04-25T01:25:17;93911.81;;;11.34;100.00
8049;BME280;20935;42.660;23.342;2023-04-25T01:28:02;93917.75;;;11.41;100.00
8049;BME280;20935;42.660;23.342;2023-04-25T01:30:47;93905.19;;;11.38;100.00
8049;BME280;20935;42.660;23.342;2023-04-25T01:33:33;93910.19;;;11.36;100.00
8049;BME280;20935;42.660;23.342;2023-04-25T01:36:18;93914.22;;;11.44;100.00
8049;BME280;20935;42.660;23.342;2023-04-25T01:39:05;93926.19;;;11.40;100.00
8049;BME280;20935;42.660;23.342;2023-04-25T01:41:51;93927.13;;;11.33;100.00
8049;BME280;20935;42.660;23.342;2023-04-25T01:44:36;93930.81;;;11.39;100.00
8049;BME280;20935;42.660;23.342;2023-04-25T01:47:22;93927.06;;;11.01;100.00
8049;BME280;20935;42.660;23.342;2023-04-25T01:50:08;93923.88;;;10.90;100.00
8049;BME280;20935;42.660;23.342;2023-04-25T01:52:54;93932.53;;;11.13;100.00
8049;BME280;20935;42.660;23.342;2023-04-25T01:55:41;93936.63;;;11.02;100.00
8049;BME280;20935;42.660;23.342;2023-04-25T01:58:27;93944.44;;;11.12;100.00
8049;BME280;20935;42.660;23.342;2023-04-25T02:01:12;93942.13;;;11.30;100.00
8049;BME280;20935;42.660;23.342;2023-04-25T02:03:58;93940.78;;;11.39;100.00
8049;BME280;20935;42.660;23.342;2023-04-25T02:06:44;93928.44;;;11.09;100.00
8049;BME280;20935;42.660;23.342;2023-04-25T02:09:29;93918.13;;;11.07;100.00
8049;BME280;20935;42.660;23.342;2023-04-25T02:12:16;93920.72;;;10.95;100.00
8049;BME280;20935;42.660;23.342;2023-04-25T02:15:02;93927.34;;;11.06;100.00
8049;BME280;20935;42.660;23.342;2023-04-25T02:17:47;93920.13;;;11.03;100.00
8049;BME280;20935;42.660;23.342;2023-04-25T02:20:34;93910.66;;;11.15;100.00
8049;BME280;20935;42.660;23.342;2023-04-25T02:23:19;93903.22;;;10.70;100.00
8049;BME280;20935;42.660;23.342;2023-04-25T02:26:04;93891.75;;;10.70;100.00
8049;BME280;20935;42.660;23.342;2023-04-25T02:28:51;93889.53;;;10.84;100.00
8049;BME280;20935;42.660;23.342;2023-04-25T02:31:37;93887.94;;;10.87;100.00
8049;BME280;20935;42.660;23.342;2023-04-25T02:34:22;93894.03;;;10.88;100.00
8049;BME280;20935;42.660;23.342;2023-04-25T02:37:08;93889.34;;;10.56;100.00
8049;BME280;20935;42.660;23.342;2023-04-25T02:39:54;93883.25;;;10.55;100.00
8049;BME280;20935;42.660;23.342;2023-04-25T02:42:40;93883.88;;;10.43;100.00
8049;BME280;20935;42.660;23.342;2023-04-25T02:45:27;93889.22;;;10.63;100.00
8049;BME280;20935;42.660;23.342;2023-04-25T02:48:12;93893.44;;;10.80;100.00
8049;BME280;20935;42.660;23.342;2023-04-25T02:50:58;93890.44;;;10.78;100.00
8049;BME280;20935;42.660;23.342;2023-04-25T02:53:43;93882.13;;;10.72;100.00
8049;BME280;20935;42.660;23.342;2023-04-25T02:56:29;93869.06;;;10.58;100.00
8049;BME280;20935;42.660;23.342;2023-04-25T02:59:14;93872.69;;;10.28;100.00
8049;BME280;20935;42.660;23.342;2023-04-25T03:02:02;93870.09;;;10.25;100.00
8049;BME280;20935;42.660;23.342;2023-04-25T03:04:47;93867.81;;;10.23;100.00
8049;BME280;20935;42.660;23.342;2023-04-25T03:07:33;93867.88;;;10.20;100.00
8049;BME280;20935;42.660;23.342;2023-04-25T03:10:18;93866.72;;;10.21;100.00
8049;BME280;20935;42.660;23.342;2023-04-25T03:13:04;93871.06;;;10.34;100.00
8049;BME280;20935;42.660;23.342;2023-04-25T03:15:49;93852.88;;;10.26;100.00
8049;BME280;20935;42.660;23.342;2023-04-25T03:18:36;93860.06;;;10.29;100.00
8049;BME280;20935;42.660;23.342;2023-04-25T03:21:21;93870.34;;;10.11;100.00
8049;BME280;20935;42.660;23.342;2023-04-25T03:24:07;93871.25;;;10.24;100.00
8049;BME280;20935;42.660;23.342;2023-04-25T03:26:52;93853.50;;;10.33;100.00
8049;BME280;20935;42.660;23.342;2023-04-25T03:29:38;93868.91;;;10.65;100.00
8049;BME280;20935;42.660;23.342;2023-04-25T03:32:24;93863.81;;;10.51;100.00
8049;BME280;20935;42.660;23.342;2023-04-25T03:35:11;93861.09;;;10.55;100.00
8049;BME280;20935;42.660;23.342;2023-04-25T03:37:57;93861.91;;;10.52;100.00
8049;BME280;20935;42.660;23.342;2023-04-25T03:40:43;93861.88;;;10.71;100.00
8049;BME280;20935;42.660;23.342;2023-04-25T03:43:28;93864.47;;;10.59;100.00
8049;BME280;20935;42.660;23.342;2023-04-25T03:46:14;93876.94;;;10.65;100.00
8049;BME280;20935;42.660;23.342;2023-04-25T03:48:59;93868.09;;;10.49;100.00
8049;BME280;20935;42.660;23.342;2023-04-25T03:51:46;93865.25;;;10.92;100.00
8049;BME280;20935;42.660;23.342;2023-04-25T03:54:31;93859.38;;;10.80;100.00
8049;BME280;20935;42.660;23.342;2023-04-25T03:57:20;93859.09;;;10.95;100.00
8049;BME280;20935;42.660;23.342;2023-04-25T04:00:06;93844.59;;;10.92;100.00
8049;BME280;20935;42.660;23.342;2023-04-25T04:02:52;93852.16;;;11.13;100.00
8049;BME280;20935;42.660;23.342;2023-04-25T04:05:37;93856.19;;;11.38;100.00
8049;BME280;20935;42.660;23.342;2023-04-25T04:08:26;93874.34;;;11.46;100.00
8049;BME280;20935;42.660;23.342;2023-04-25T04:11:11;93869.50;;;11.25;100.00
8049;BME280;20935;42.660;23.342;2023-04-25T04:13:56;93884.53;;;11.67;100.00
8049;BME280;20935;42.660;23.342;2023-04-25T04:16:42;93872.34;;;11.34;100.00
8049;BME280;20935;42.660;23.342;2023-04-25T04:19:30;93870.47;;;11.31;100.00
8049;BME280;20935;42.660;23.342;2023-04-25T04:22:15;93880.72;;;11.36;100.00
8049;BME280;20935;42.660;23.342;2023-04-25T04:25:03;93863.38;;;11.57;100.00
8049;BME280;20935;42.660;23.342;2023-04-25T04:27:50;93874.69;;;11.81;100.00
8049;BME280;20935;42.660;23.342;2023-04-25T04:30:39;93883.91;;;11.80;100.00
8049;BME280;20935;42.660;23.342;2023-04-25T04:33:25;93874.09;;;11.41;100.00
8049;BME280;20935;42.660;23.342;2023-04-25T04:36:11;93876.88;;;11.37;100.00
8049;BME280;20935;42.660;23.342;2023-04-25T04:38:56;93878.78;;;11.53;100.00
8049;BME280;20935;42.660;23.342;2023-04-25T04:41:43;93862.28;;;11.38;100.00
8049;BME280;20935;42.660;23.342;2023-04-25T04:44:29;93879.72;;;11.46;100.00
8049;BME280;20935;42.660;23.342;2023-04-25T04:47:16;93868.66;;;11.28;100.00
8049;BME280;20935;42.660;23.342;2023-04-25T04:50:05;93870.84;;;11.33;100.00
8049;BME280;20935;42.660;23.342;2023-04-25T04:52:51;93885.47;;;11.61;100.00
8049;BME280;20935;42.660;23.342;2023-04-25T04:55:36;93881.22;;;11.47;100.00
8049;BME280;20935;42.660;23.342;2023-04-25T04:58:23;93889.00;;;11.58;100.00
8049;BME280;20935;42.660;23.342;2023-04-25T05:01:09;93883.78;;;11.35;100.00
8049;BME280;20935;42.660;23.342;2023-04-25T05:03:54;93892.59;;;11.19;100.00
8049;BME280;20935;42.660;23.342;2023-04-25T05:06:44;93889.25;;;11.63;100.00
8049;BME280;20935;42.660;23.342;2023-04-25T05:09:29;93909.38;;;11.88;100.00
8049;BME280;20935;42.660;23.342;2023-04-25T05:12:15;93905.44;;;11.76;100.00
8049;BME280;20935;42.660;23.342;2023-04-25T05:15:01;93901.00;;;11.69;100.00
8049;BME280;20935;42.660;23.342;2023-04-25T05:17:49;93910.53;;;11.87;100.00
8049;BME280;20935;42.660;23.342;2023-04-25T05:20:34;93918.44;;;11.94;100.00
8049;BME280;20935;42.660;23.342;2023-04-25T05:23:20;93905.97;;;12.16;100.00
8049;BME280;20935;42.660;23.342;2023-04-25T05:26:06;65502.94;;;-143.54;100.00
8049;BME280;20935;42.660;23.342;2023-04-25T05:28:57;65502.94;;;-143.54;100.00
8049;BME280;20935;42.660;23.342;2023-04-25T05:31:44;65502.94;;;-143.54;100.00
8049;BME280;20935;42.660;23.342;2023-04-25T05:34:29;65502.94;;;-143.54;100.00
8049;BME280;20935;42.660;23.342;2023-04-25T05:37:15;65502.94;;;-143.54;100.00
8049;BME280;20935;42.660;23.342;2023-04-25T05:40:00;65502.94;;;-143.54;100.00
8049;BME280;20935;42.660;23.342;2023-04-25T05:42:51;65502.94;;;-143.54;100.00
8049;BME280;20935;42.660;23.342;2023-04-25T05:45:36;65502.94;;;-143.54;100.00
8049;BME280;20935;42.660;23.342;2023-04-25T05:48:23;65502.94;;;-143.54;100.00
8049;BME280;20935;42.660;23.342;2023-04-25T05:51:09;65502.94;;;-143.54;100.00
8049;BME280;20935;42.660;23.342;2023-04-25T05:53:54;65502.94;;;-143.54;100.00
8049;BME280;20935;42.660;23.342;2023-04-25T05:56:40;65502.94;;;-143.54;100.00
8049;BME280;20935;42.660;23.342;2023-04-25T05:59:25;65502.94;;;-143.54;100.00
8049;BME280;20935;42.660;23.342;2023-04-25T06:02:11;65502.94;;;-143.54;100.00
8049;BME280;20935;42.660;23.342;2023-04-25T06:04:58;65502.94;;;-143.54;100.00
8049;BME280;20935;42.660;23.342;2023-04-25T06:07:43;65502.94;;;-143.54;100.00
8049;BME280;20935;42.660;23.342;2023-04-25T06:10:29;65502.94;;;-143.54;100.00
8049;BME280;20935;42.660;23.342;2023-04-25T06:13:14;65502.94;;;-143.54;100.00
8049;BME280;20935;42.660;23.342;2023-04-25T06:16:00;65502.94;;;-143.54;100.00
8049;BME280;20935;42.660;23.342;2023-04-25T06:18:45;65502.94;;;-143.54;100.00
8049;BME280;20935;42.660;23.342;2023-04-25T06:21:32;65502.94;;;-143.54;100.00
8049;BME280;20935;42.660;23.342;2023-04-25T06:24:18;65502.94;;;-143.54;100.00
8049;BME280;20935;42.660;23.342;2023-04-25T06:27:04;65502.94;;;-143.54;100.00
8049;BME280;20935;42.660;23.342;2023-04-25T06:29:49;65502.94;;;-143.54;100.00
8049;BME280;20935;42.660;23.342;2023-04-25T06:32:35;65502.94;;;-143.54;100.00
8049;BME280;20935;42.660;23.342;2023-04-25T06:35:20;65502.94;;;-143.54;100.00
8049;BME280;20935;42.660;23.342;2023-04-25T06:38:07;65502.94;;;-143.54;100.00
8049;BME280;20935;42.660;23.342;2023-04-25T06:40:53;65502.94;;;-143.54;100.00
8049;BME280;20935;42.660;23.342;2023-04-25T06:43:38;65502.94;;;-143.54;100.00
8049;BME280;20935;42.660;23.342;2023-04-25T06:46:24;65502.94;;;-143.54;100.00
8049;BME280;20935;42.660;23.342;2023-04-25T06:49:09;65502.94;;;-143.54;100.00
8049;BME280;20935;42.660;23.342;2023-04-25T06:51:55;65502.94;;;-143.54;100.00
8049;BME280;20935;42.660;23.342;2023-04-25T06:54:42;65502.94;;;-143.54;100.00
8049;BME280;20935;42.660;23.342;2023-04-25T06:57:27;65502.94;;;-143.54;100.00
8049;BME280;20935;42.660;23.342;2023-04-25T07:00:14;65502.94;;;-143.54;100.00
8049;BME280;20935;42.660;23.342;2023-04-25T07:03:00;65502.94;;;-143.54;100.00
8049;BME280;20935;42.660;23.342;2023-04-25T07:05:46;65502.94;;;-143.54;100.00
8049;BME280;20935;42.660;23.342;2023-04-25T07:08:31;65502.94;;;-143.54;100.00
8049;BME280;20935;42.660;23.342;2023-04-25T07:11:18;65502.94;;;-143.54;100.00
8049;BME280;20935;42.660;23.342;2023-04-25T07:14:03;65502.94;;;-143.54;100.00
8049;BME280;20935;42.660;23.342;2023-04-25T07:16:49;65502.94;;;-143.54;100.00
8049;BME280;20935;42.660;23.342;2023-04-25T07:19:34;65502.94;;;-143.54;100.00
8049;BME280;20935;42.660;23.342;2023-04-25T07:22:21;65502.94;;;-143.54;100.00
8049;BME280;20935;42.660;23.342;2023-04-25T07:25:07;65502.94;;;-143.54;100.00
8049;BME280;20935;42.660;23.342;2023-04-25T07:27:54;65502.94;;;-143.54;100.00
8049;BME280;20935;42.660;23.342;2023-04-25T07:30:40;65502.94;;;-143.54;100.00
8049;BME280;20935;42.660;23.342;2023-04-25T07:33:25;65502.94;;;-143.54;100.00
8049;BME280;20935;42.660;23.342;2023-04-25T07:36:11;65502.94;;;-143.54;100.00
8049;BME280;20935;42.660;23.342;2023-04-25T07:38:57;65502.94;;;-143.54;100.00
8049;BME280;20935;42.660;23.342;2023-04-25T07:41:42;65502.94;;;-143.54;100.00
8049;BME280;20935;42.660;23.342;2023-04-25T07:44:31;65502.94;;;-143.54;100.00
8049;BME280;20935;42.660;23.342;2023-04-25T07:47:18;65502.94;;;-143.54;100.00
8049;BME280;20935;42.660;23.342;2023-04-25T07:50:04;65502.94;;;-143.54;100.00
8049;BME280;20935;42.660;23.342;2023-04-25T07:52:50;65502.94;;;-143.54;100.00
8049;BME280;20935;42.660;23.342;2023-04-25T07:55:36;65502.94;;;-143.54;100.00
8049;BME280;20935;42.660;23.342;2023-04-25T07:58:24;65502.94;;;-143.54;100.00
8049;BME280;20935;42.660;23.342;2023-04-25T08:01:11;65502.94;;;-143.54;100.00
8049;BME280;20935;42.660;23.342;2023-04-25T08:03:56;65502.94;;;-143.54;100.00
8049;BME280;20935;42.660;23.342;2023-04-25T08:06:42;65502.94;;;-143.54;100.00
8049;BME280;20935;42.660;23.342;2023-04-25T08:09:27;65502.94;;;-143.54;100.00
8049;BME280;20935;42.660;23.342;2023-04-25T08:12:13;65502.94;;;-143.54;100.00
8049;BME280;20935;42.660;23.342;2023-04-25T08:14:58;65502.94;;;-143.54;100.00
8049;BME280;20935;42.660;23.342;2023-04-25T08:17:45;65502.94;;;-143.54;100.00
8049;BME280;20935;42.660;23.342;2023-04-25T08:20:31;65502.94;;;-143.54;100.00
8049;BME280;20935;42.660;23.342;2023-04-25T08:23:16;65502.94;;;-143.54;100.00
8049;BME280;20935;42.660;23.342;2023-04-25T08:26:02;65502.94;;;-143.54;100.00
8049;BME280;20935;42.660;23.342;2023-04-25T08:28:48;65502.94;;;-143.54;100.00
8049;BME280;20935;42.660;23.342;2023-04-25T08:31:34;65502.94;;;-143.54;100.00
8049;BME280;20935;42.660;23.342;2023-04-25T08:34:21;65502.94;;;-143.54;100.00
8049;BME280;20935;42.660;23.342;2023-04-25T08:37:06;65502.94;;;-143.54;100.00
8049;BME280;20935;42.660;23.342;2023-04-25T08:39:52;65502.94;;;-143.54;100.00
8049;BME280;20935;42.660;23.342;2023-04-25T08:42:38;65502.94;;;-143.54;100.00
8049;BME280;20935;42.660;23.342;2023-04-25T08:45:26;65502.94;;;-143.54;100.00
8049;BME280;20935;42.660;23.342;2023-04-25T08:48:13;65502.94;;;-143.54;100.00
8049;BME280;20935;42.660;23.342;2023-04-25T08:51:02;65502.94;;;-143.54;100.00
8049;BME280;20935;42.660;23.342;2023-04-25T08:53:49;65502.94;;;-143.54;100.00
8049;BME280;20935;42.660;23.342;2023-04-25T08:56:36;65502.94;;;-143.54;100.00
8049;BME280;20935;42.660;23.342;2023-04-25T08:59:22;65502.94;;;-143.54;100.00
8049;BME280;20935;42.660;23.342;2023-04-25T09:02:08;65502.94;;;-143.54;100.00
8049;BME280;20935;42.660;23.342;2023-04-25T09:04:58;65502.94;;;-143.54;100.00
8049;BME280;20935;42.660;23.342;2023-04-25T09:07:45;65502.94;;;-143.54;100.00
8049;BME280;20935;42.660;23.342;2023-04-25T09:10:31;65502.94;;;-143.54;100.00
8049;BME280;20935;42.660;23.342;2023-04-25T09:13:24;65502.94;;;-143.54;100.00
8049;BME280;20935;42.660;23.342;2023-04-25T09:16:10;65502.94;;;-143.54;100.00
8049;BME280;20935;42.660;23.342;2023-04-25T09:18:56;65502.94;;;-143.54;100.00
8049;BME280;20935;42.660;23.342;2023-04-25T09:21:41;65502.94;;;-143.54;100.00
8049;BME280;20935;42.660;23.342;2023-04-25T09:24:36;65502.94;;;-143.54;100.00
8049;BME280;20935;42.660;23.342;2023-04-25T09:27:22;65502.94;;;-143.54;100.00
8049;BME280;20935;42.660;23.342;2023-04-25T09:30:10;65502.94;;;-143.54;100.00
8049;BME280;20935;42.660;23.342;2023-04-25T09:32:56;65502.94;;;-143.54;100.00
8049;BME280;20935;42.660;23.342;2023-04-25T09:35:43;65502.94;;;-143.54;100.00
8049;BME280;20935;42.660;23.342;2023-04-25T09:38:30;65502.94;;;-143.54;100.00
8049;BME280;20935;42.660;23.342;2023-04-25T09:41:23;65502.94;;;-143.54;100.00
8049;BME280;20935;42.660;23.342;2023-04-25T09:44:12;65502.94;;;-143.54;100.00
8049;BME280;20935;42.660;23.342;2023-04-25T09:46:58;65502.94;;;-143.54;100.00
8049;BME280;20935;42.660;23.342;2023-04-25T09:49:44;65502.94;;;-143.54;100.00
8049;BME280;20935;42.660;23.342;2023-04-25T09:52:29;65502.94;;;-143.54;100.00
8049;BME280;20935;42.660;23.342;2023-04-25T09:55:15;65502.94;;;-143.54;100.00
8049;BME280;20935;42.660;23.342;2023-04-25T09:58:04;65502.94;;;-143.54;100.00
8049;BME280;20935;42.660;23.342;2023-04-25T10:00:51;65502.94;;;-143.54;100.00
8049;BME280;20935;42.660;23.342;2023-04-25T10:03:38;65502.94;;;-143.54;100.00
8049;BME280;20935;42.660;23.342;2023-04-25T10:06:25;65502.94;;;-143.54;100.00
8049;BME280;20935;42.660;23.342;2023-04-25T10:09:12;65502.94;;;-143.54;100.00
8049;BME280;20935;42.660;23.342;2023-04-25T10:11:59;65502.94;;;-143.54;100.00
8049;BME280;20935;42.660;23.342;2023-04-25T10:14:46;65502.94;;;-143.54;100.00
8049;BME280;20935;42.660;23.342;2023-04-25T10:17:32;65502.94;;;-143.54;100.00
8049;BME280;20935;42.660;23.342;2023-04-25T10:20:19;65502.94;;;-143.54;100.00
8049;BME280;20935;42.660;23.342;2023-04-25T10:23:11;65502.94;;;-143.54;100.00
8049;BME280;20935;42.660;23.342;2023-04-25T10:25:58;65502.94;;;-143.54;100.00
8049;BME280;20935;42.660;23.342;2023-04-25T10:28:58;65502.94;;;-143.54;100.00
8049;BME280;20935;42.660;23.342;2023-04-25T10:31:46;65502.94;;;-143.54;100.00
8049;BME280;20935;42.660;23.342;2023-04-25T10:34:43;65502.94;;;-143.54;100.00
8049;BME280;20935;42.660;23.342;2023-04-25T10:37:30;65502.94;;;-143.54;100.00
8049;BME280;20935;42.660;23.342;2023-04-25T10:40:21;65502.94;;;-143.54;100.00
8049;BME280;20935;42.660;23.342;2023-04-25T10:43:33;65502.94;;;-143.54;100.00
8049;BME280;20935;42.660;23.342;2023-04-25T10:46:22;65502.94;;;-143.54;100.00
8049;BME280;20935;42.660;23.342;2023-04-25T10:49:10;65502.94;;;-143.54;100.00
8049;BME280;20935;42.660;23.342;2023-04-25T10:52:10;65502.94;;;-143.54;100.00
8049;BME280;20935;42.660;23.342;2023-04-25T10:54:57;65502.94;;;-143.54;100.00
8049;BME280;20935;42.660;23.342;2023-04-25T10:57:44;65502.94;;;-143.54;100.00
8049;BME280;20935;42.660;23.342;2023-04-25T11:00:30;65502.94;;;-143.54;100.00
8049;BME280;20935;42.660;23.342;2023-04-25T11:03:21;65502.94;;;-143.54;100.00
8049;BME280;20935;42.660;23.342;2023-04-25T11:06:16;65502.94;;;-143.54;100.00
8049;BME280;20935;42.660;23.342;2023-04-25T11:09:10;65502.94;;;-143.54;100.00
8049;BME280;20935;42.660;23.342;2023-04-25T11:11:58;65502.94;;;-143.54;100.00
8049;BME280;20935;42.660;23.342;2023-04-25T11:14:44;65502.94;;;-143.54;100.00
8049;BME280;20935;42.660;23.342;2023-04-25T11:17:30;65502.94;;;-143.54;100.00
8049;BME280;20935;42.660;23.342;2023-04-25T11:20:15;65502.94;;;-143.54;100.00
8049;BME280;20935;42.660;23.342;2023-04-25T11:23:02;65502.94;;;-143.54;100.00
8049;BME280;20935;42.660;23.342;2023-04-25T11:25:49;65502.94;;;-143.54;100.00
8049;BME280;20935;42.660;23.342;2023-04-25T11:28:34;65502.94;;;-143.54;100.00
8049;BME280;20935;42.660;23.342;2023-04-25T11:31:20;65502.94;;;-143.54;100.00
8049;BME280;20935;42.660;23.342;2023-04-25T11:34:06;65502.94;;;-143.54;100.00
8049;BME280;20935;42.660;23.342;2023-04-25T11:36:52;65502.94;;;-143.54;100.00
8049;BME280;20935;42.660;23.342;2023-04-25T11:39:42;65502.94;;;-143.54;100.00
8049;BME280;20935;42.660;23.342;2023-04-25T11:42:30;65502.94;;;-143.54;100.00
8049;BME280;20935;42.660;23.342;2023-04-25T11:45:15;65502.94;;;-143.54;100.00
8049;BME280;20935;42.660;23.342;2023-04-25T11:48:02;65502.94;;;-143.54;100.00
8049;BME280;20935;42.660;23.342;2023-04-25T11:50:48;65502.94;;;-143.54;100.00
8049;BME280;20935;42.660;23.342;2023-04-25T11:53:35;65502.94;;;-143.54;100.00
8049;BME280;20935;42.660;23.342;2023-04-25T11:56:22;65502.94;;;-143.54;100.00
8049;BME280;20935;42.660;23.342;2023-04-25T11:59:07;65502.94;;;-143.54;100.00
8049;BME280;20935;42.660;23.342;2023-04-25T12:01:53;65502.94;;;-143.54;100.00
8049;BME280;20935;42.660;23.342;2023-04-25T12:04:40;65502.94;;;-143.54;100.00
8049;BME280;20935;42.660;23.342;2023-04-25T12:07:28;65502.94;;;-143.54;100.00
8049;BME280;20935;42.660;23.342;2023-04-25T12:10:15;65502.94;;;-143.54;100.00
8049;BME280;20935;42.660;23.342;2023-04-25T12:13:17;65502.94;;;-143.54;100.00
8049;BME280;20935;42.660;23.342;2023-04-25T12:16:03;65502.94;;;-143.54;100.00
8049;BME280;20935;42.660;23.342;2023-04-25T12:18:51;65502.94;;;-143.54;100.00
8049;BME280;20935;42.660;23.342;2023-04-25T12:21:36;65502.94;;;-143.54;100.00
8049;BME280;20935;42.660;23.342;2023-04-25T12:24:23;65502.94;;;-143.54;100.00
8049;BME280;20935;42.660;23.342;2023-04-25T12:27:09;65502.94;;;-143.54;100.00
8049;BME280;20935;42.660;23.342;2023-04-25T12:29:56;65502.94;;;-143.54;100.00
8049;BME280;20935;42.660;23.342;2023-04-25T12:32:42;65502.94;;;-143.54;100.00
8049;BME280;20935;42.660;23.342;2023-04-25T12:35:27;65502.94;;;-143.54;100.00
8049;BME280;20935;42.660;23.342;2023-04-25T12:38:20;65502.94;;;-143.54;100.00
8049;BME280;20935;42.660;23.342;2023-04-25T12:41:06;65502.94;;;-143.54;100.00
8049;BME280;20935;42.660;23.342;2023-04-25T12:43:51;65502.94;;;-143.54;100.00
8049;BME280;20935;42.660;23.342;2023-04-25T12:46:39;65502.94;;;-143.54;100.00
8049;BME280;20935;42.660;23.342;2023-04-25T12:49:25;65502.94;;;-143.54;100.00
8049;BME280;20935;42.660;23.342;2023-04-25T12:52:10;65502.94;;;-143.54;100.00
8049;BME280;20935;42.660;23.342;2023-04-25T12:54:55;65502.94;;;-143.54;100.00
8049;BME280;20935;42.660;23.342;2023-04-25T12:57:41;65502.94;;;-143.54;100.00
8049;BME280;20935;42.660;23.342;2023-04-25T13:00:27;65502.94;;;-143.54;100.00
8049;BME280;20935;42.660;23.342;2023-04-25T13:03:14;65502.94;;;-143.54;100.00
8049;BME280;20935;42.660;23.342;2023-04-25T13:06:00;65502.94;;;-143.54;100.00
8049;BME280;20935;42.660;23.342;2023-04-25T13:08:45;65502.94;;;-143.54;100.00
8049;BME280;20935;42.660;23.342;2023-04-25T13:11:31;65502.94;;;-143.54;100.00
8049;BME280;20935;42.660;23.342;2023-04-25T13:14:16;65502.94;;;-143.54;100.00
8049;BME280;20935;42.660;23.342;2023-04-25T13:17:02;65502.94;;;-143.54;100.00
8049;BME280;20935;42.660;23.342;2023-04-25T13:19:50;65502.94;;;-143.54;100.00
8049;BME280;20935;42.660;23.342;2023-04-25T13:22:35;65502.94;;;-143.54;100.00
8049;BME280;20935;42.660;23.342;2023-04-25T13:25:21;65502.94;;;-143.54;100.00
8049;BME280;20935;42.660;23.342;2023-04-25T13:28:07;65502.94;;;-143.54;100.00
8049;BME280;20935;42.660;23.342;2023-04-25T13:30:52;65502.94;;;-143.54;100.00
8049;BME280;20935;42.660;23.342;2023-04-25T13:33:38;65502.94;;;-143.54;100.00
8049;BME280;20935;42.660;23.342;2023-04-25T13:36:25;65502.94;;;-143.54;100.00
8049;BME280;20935;42.660;23.342;2023-04-25T13:39:12;65502.94;;;-143.54;100.00
8049;BME280;20935;42.660;23.342;2023-04-25T13:42:00;65502.94;;;-143.54;100.00
8049;BME280;20935;42.660;23.342;2023-04-25T13:44:46;65502.94;;;-143.54;100.00
8049;BME280;20935;42.660;23.342;2023-04-25T13:47:31;65502.94;;;-143.54;100.00
8049;BME280;20935;42.660;23.342;2023-04-25T13:50:16;65502.94;;;-143.54;100.00
8049;BME280;20935;42.660;23.342;2023-04-25T13:53:03;65502.94;;;-143.54;100.00
8049;BME280;20935;42.660;23.342;2023-04-25T13:55:50;65502.94;;;-143.54;100.00
8049;BME280;20935;42.660;23.342;2023-04-25T13:58:35;65502.94;;;-143.54;100.00
8049;BME280;20935;42.660;23.342;2023-04-25T14:01:21;65502.94;;;-143.54;100.00
8049;BME280;20935;42.660;23.342;2023-04-25T14:04:06;65502.94;;;-143.54;100.00
8049;BME280;20935;42.660;23.342;2023-04-25T14:06:52;65502.94;;;-143.54;100.00
8049;BME280;20935;42.660;23.342;2023-04-25T14:09:39;65502.94;;;-143.54;100.00
8049;BME280;20935;42.660;23.342;2023-04-25T14:12:24;65502.94;;;-143.54;100.00
8049;BME280;20935;42.660;23.342;2023-04-25T14:15:10;65502.94;;;-143.54;100.00
8049;BME280;20935;42.660;23.342;2023-04-25T14:17:56;65502.94;;;-143.54;100.00